createdAt,value
2018-09-20T00:01:55.721Z,101688.95
2018-09-20T00:04:24.309Z,101683.14
2018-09-20T00:06:52.984Z,101683.55
2018-09-20T00:09:21.665Z,101677.84
2018-09-20T00:11:50.253Z,101680.09
2018-09-20T00:14:18.953Z,101684.06
2018-09-20T00:16:47.634Z,101688.81
2018-09-20T00:19:16.249Z,101685.64
2018-09-20T00:21:44.894Z,101676.26
2018-09-20T00:24:13.456Z,101673.14
2018-09-20T00:26:42.082Z,101674.89
2018-09-20T00:29:10.724Z,101673.97
2018-09-20T00:31:39.474Z,101673.49
2018-09-20T00:34:08.030Z,101668.09
2018-09-20T00:36:36.818Z,101666.77
2018-09-20T00:39:11.952Z,101668.00
2018-09-20T00:41:53.094Z,101672.38
2018-09-20T00:44:21.653Z,101668.92
2018-09-20T00:46:50.217Z,101667.70
2018-09-20T00:49:18.787Z,101662.80
2018-09-20T00:51:47.422Z,101665.03
2018-09-20T00:54:16.064Z,101665.39
2018-09-20T00:56:59.426Z,101667.91
2018-09-20T00:59:28.065Z,101659.91
2018-09-20T01:01:56.762Z,101660.34
2018-09-20T01:04:25.337Z,101659.80
2018-09-20T01:06:59.146Z,101665.06
2018-09-20T01:09:27.792Z,101663.26
2018-09-20T01:11:56.340Z,101670.14
2018-09-20T01:14:24.925Z,101668.20
2018-09-20T01:16:53.500Z,101667.30
2018-09-20T01:19:22.171Z,101662.05
2018-09-20T01:21:50.741Z,101662.27
2018-09-20T01:24:19.290Z,101667.65
2018-09-20T01:26:47.898Z,101663.74
2018-09-20T01:29:16.512Z,101668.11
2018-09-20T01:31:45.216Z,101663.72
2018-09-20T01:34:14.648Z,101665.95
2018-09-20T01:36:43.195Z,101666.38
2018-09-20T01:39:14.036Z,101670.98
2018-09-20T01:41:42.817Z,101668.92
2018-09-20T01:44:12.084Z,101665.00
2018-09-20T01:46:40.685Z,101667.27
2018-09-20T01:49:09.784Z,101669.01
2018-09-20T01:51:38.476Z,101668.11
2018-09-20T01:54:07.237Z,101668.14
2018-09-20T01:56:35.854Z,101673.91
2018-09-20T01:59:04.464Z,101667.31
2018-09-20T02:01:33.217Z,101664.70
2018-09-20T02:04:01.782Z,101666.98
2018-09-20T02:06:30.369Z,101666.12
2018-09-20T02:08:59.708Z,101675.04
2018-09-20T02:11:29.024Z,101675.06
2018-09-20T02:13:57.688Z,101674.64
2018-09-20T02:16:26.236Z,101665.33
2018-09-20T02:18:54.810Z,101672.34
2018-09-20T02:21:23.430Z,101664.66
2018-09-20T02:23:52.038Z,101667.22
2018-09-20T02:26:20.575Z,101663.63
2018-09-20T02:28:49.177Z,101667.64
2018-09-20T02:31:17.737Z,101661.45
2018-09-20T02:33:46.358Z,101661.45
2018-09-20T02:36:15.057Z,101659.63
2018-09-20T02:38:43.786Z,101657.34
2018-09-20T02:41:12.402Z,101653.72
2018-09-20T02:43:41.006Z,101651.83
2018-09-20T02:46:10.398Z,101656.09
2018-09-20T02:48:39.292Z,101656.07
2018-09-20T02:51:08.017Z,101656.01
2018-09-20T02:53:36.575Z,101666.25
2018-09-20T02:56:05.247Z,101660.42
2018-09-20T02:58:33.908Z,101663.41
2018-09-20T03:01:03.662Z,101662.05
2018-09-20T03:03:32.340Z,101663.63
2018-09-20T03:06:00.924Z,101656.48
2018-09-20T03:08:29.490Z,101659.17
2018-09-20T03:10:58.709Z,101659.60
2018-09-20T03:13:27.439Z,101665.77
2018-09-20T03:15:56.037Z,101664.42
2018-09-20T03:18:39.180Z,101660.92
2018-09-20T03:21:07.730Z,101654.66
2018-09-20T03:23:36.332Z,101653.69
2018-09-20T03:26:04.913Z,101657.55
2018-09-20T03:28:33.526Z,101656.20
2018-09-20T03:31:02.277Z,101655.22
2018-09-20T03:33:30.891Z,101657.45
2018-09-20T03:35:59.464Z,101663.53
2018-09-20T03:38:28.625Z,101656.52
2018-09-20T03:40:57.270Z,101660.57
2018-09-20T03:43:25.844Z,101660.27
2018-09-20T03:45:54.404Z,101669.06
2018-09-20T03:48:22.976Z,101666.80
2018-09-20T03:51:04.073Z,101661.95
2018-09-20T03:53:40.469Z,101663.69
2018-09-20T03:56:09.026Z,101662.92
2018-09-20T03:58:37.692Z,101669.14
2018-09-20T04:01:06.341Z,101671.01
2018-09-20T04:03:35.020Z,101661.50
2018-09-20T04:06:03.759Z,101657.77
2018-09-20T04:08:32.395Z,101656.67
2018-09-20T04:11:01.130Z,101649.83
2018-09-20T04:13:40.292Z,101650.93
2018-09-20T04:16:09.126Z,101653.28
2018-09-20T04:18:37.936Z,101647.50
2018-09-20T04:21:06.676Z,101653.69
2018-09-20T04:23:35.383Z,101647.48
2018-09-20T04:26:03.936Z,101647.88
2018-09-20T04:28:32.620Z,101648.69
2018-09-20T04:31:01.334Z,101649.94
2018-09-20T04:33:33.391Z,101641.83
2018-09-20T04:36:02.041Z,101651.02
2018-09-20T04:38:30.670Z,101644.75
2018-09-20T04:40:59.280Z,101635.78
2018-09-20T04:43:35.393Z,101641.80
2018-09-20T04:46:03.989Z,101642.12
2018-09-20T04:48:33.561Z,101640.68
2018-09-20T04:51:02.137Z,101644.51
2018-09-20T04:53:30.825Z,101644.07
2018-09-20T04:55:59.325Z,101651.55
2018-09-20T04:58:27.920Z,101651.95
2018-09-20T05:00:56.491Z,101647.59
2018-09-20T05:03:25.066Z,101650.35
2018-09-20T05:05:53.690Z,101643.79
2018-09-20T05:08:22.402Z,101645.12
2018-09-20T05:10:50.965Z,101644.69
2018-09-20T05:13:19.704Z,101639.81
2018-09-20T05:15:48.283Z,101643.89
2018-09-20T05:18:16.919Z,101648.19
2018-09-20T05:20:45.654Z,101641.05
2018-09-20T05:23:14.235Z,101646.45
2018-09-20T05:25:44.198Z,101641.16
2018-09-20T05:28:12.847Z,101637.20
2018-09-20T05:30:41.521Z,101640.39
2018-09-20T05:33:10.163Z,101649.84
2018-09-20T05:35:39.408Z,101643.83
2018-09-20T05:38:08.261Z,101644.02
2018-09-20T05:40:49.580Z,101637.59
2018-09-20T05:43:18.182Z,101640.36
2018-09-20T05:45:50.606Z,101646.27
2018-09-20T05:48:19.292Z,101641.97
2018-09-20T05:50:48.039Z,101642.49
2018-09-20T05:53:16.651Z,101647.00
2018-09-20T05:55:45.438Z,101644.41
2018-09-20T05:58:14.009Z,101644.09
2018-09-20T06:00:42.743Z,101650.90
2018-09-20T06:03:11.365Z,101647.44
2018-09-20T06:05:40.588Z,101642.64
2018-09-20T06:08:09.161Z,101648.08
2018-09-20T06:10:37.860Z,101641.05
2018-09-20T06:13:06.500Z,101646.02
2018-09-20T06:15:35.726Z,101645.21
2018-09-20T06:18:04.333Z,101648.86
2018-09-20T06:20:43.989Z,101646.70
2018-09-20T06:23:12.588Z,101637.88
2018-09-20T06:25:41.444Z,101629.93
2018-09-20T06:28:10.002Z,101629.52
2018-09-20T06:30:38.660Z,101633.11
2018-09-20T06:33:07.220Z,101634.94
2018-09-20T06:35:36.086Z,101644.80
2018-09-20T06:38:04.993Z,101643.99
2018-09-20T06:40:33.577Z,101640.94
2018-09-20T06:43:02.301Z,101632.58
2018-09-20T06:45:30.862Z,101635.71
2018-09-20T06:47:59.412Z,101640.63
2018-09-20T06:50:28.821Z,101645.97
2018-09-20T06:52:57.410Z,101634.42
2018-09-20T06:55:26.130Z,101641.99
2018-09-20T06:57:54.793Z,101646.00
2018-09-20T07:00:23.441Z,101637.99
2018-09-20T07:02:52.456Z,101646.89
2018-09-20T07:05:21.071Z,101638.89
2018-09-20T07:07:49.635Z,101646.45
2018-09-20T07:10:18.315Z,101635.83
2018-09-20T07:12:46.896Z,101645.16
2018-09-20T07:15:15.850Z,101647.80
2018-09-20T07:17:44.472Z,101641.98
2018-09-20T07:20:13.544Z,101645.09
2018-09-20T07:22:42.123Z,101647.31
2018-09-20T07:25:10.882Z,101643.77
2018-09-20T07:27:39.733Z,101646.89
2018-09-20T07:30:08.437Z,101651.36
2018-09-20T07:32:48.555Z,101648.24
2018-09-20T07:35:17.204Z,101651.81
2018-09-20T07:37:45.908Z,101647.80
2018-09-20T07:40:14.507Z,101645.56
2018-09-20T07:42:43.113Z,101645.12
2018-09-20T07:45:11.685Z,101654.48
2018-09-20T07:47:40.260Z,101647.80
2018-09-20T07:50:09.407Z,101646.45
2018-09-20T07:52:38.068Z,101639.75
2018-09-20T07:55:06.672Z,101641.09
2018-09-20T07:57:35.254Z,101650.43
2018-09-20T08:00:04.242Z,101638.83
2018-09-20T08:02:32.837Z,101634.80
2018-09-20T08:05:01.646Z,101641.89
2018-09-20T08:07:34.299Z,101639.23
2018-09-20T08:10:02.905Z,101635.17
2018-09-20T08:12:31.473Z,101639.12
2018-09-20T08:15:00.145Z,101634.16
2018-09-20T08:17:28.775Z,101641.31
2018-09-20T08:19:57.373Z,101632.41
2018-09-20T08:22:25.996Z,101632.84
2018-09-20T08:24:54.586Z,101637.70
2018-09-20T08:27:23.480Z,101632.27
2018-09-20T08:29:52.281Z,101638.47
2018-09-20T08:32:20.889Z,101641.47
2018-09-20T08:34:49.531Z,101631.14
2018-09-20T08:37:18.281Z,101628.77
2018-09-20T08:39:46.788Z,101643.00
2018-09-20T08:42:15.435Z,101646.16
2018-09-20T08:44:44.036Z,101632.70
2018-09-20T08:47:12.705Z,101635.33
2018-09-20T08:49:41.363Z,101632.58
2018-09-20T08:52:09.945Z,101635.64
2018-09-20T08:54:38.511Z,101630.16
2018-09-20T08:57:07.167Z,101626.04
2018-09-20T08:59:35.769Z,101608.56
2018-09-20T09:02:04.581Z,101618.36
2018-09-20T09:04:33.289Z,101613.84
2018-09-20T09:07:02.038Z,101617.59
2018-09-20T09:09:30.704Z,101607.21
2018-09-20T09:11:59.378Z,101607.11
2018-09-20T09:14:28.037Z,101599.95
2018-09-20T09:16:56.829Z,101594.12
2018-09-20T09:19:25.464Z,101596.62
2018-09-20T09:21:54.077Z,101601.66
2018-09-20T09:24:22.764Z,101592.78
2018-09-20T09:26:51.424Z,101591.55
2018-09-20T09:29:19.998Z,101598.75
2018-09-20T09:31:48.632Z,101592.95
2018-09-20T09:34:18.123Z,101597.38
2018-09-20T09:36:46.732Z,101603.64
2018-09-20T09:39:15.348Z,101602.13
2018-09-20T09:41:44.386Z,101603.69
2018-09-20T09:44:13.015Z,101594.32
2018-09-20T09:46:41.596Z,101601.31
2018-09-20T09:49:10.290Z,101590.09
2018-09-20T09:51:38.971Z,101590.67
2018-09-20T09:54:07.677Z,101596.45
2018-09-20T09:56:36.306Z,101591.67
2018-09-20T09:59:32.073Z,101585.27
2018-09-20T10:02:00.648Z,101595.41
2018-09-20T10:04:29.210Z,101583.61
2018-09-20T10:06:57.796Z,101588.44
2018-09-20T10:09:26.481Z,101586.09
2018-09-20T10:11:55.150Z,101569.16
2018-09-20T10:14:23.830Z,101579.47
2018-09-20T10:16:52.450Z,101568.65
2018-09-20T10:19:21.090Z,101577.32
2018-09-20T10:21:49.985Z,101587.93
2018-09-20T10:24:18.638Z,101574.72
2018-09-20T10:26:47.209Z,101577.06
2018-09-20T10:29:15.943Z,101582.67
2018-09-20T10:31:44.617Z,101581.98
2018-09-20T10:34:13.176Z,101570.10
2018-09-20T10:36:41.804Z,101572.56
2018-09-20T10:39:12.344Z,101572.73
2018-09-20T10:41:41.074Z,101571.22
2018-09-20T10:44:09.634Z,101573.45
2018-09-20T10:46:38.490Z,101574.53
2018-09-20T10:49:07.161Z,101572.33
2018-09-20T10:51:36.077Z,101572.37
2018-09-20T10:54:04.845Z,101566.56
2018-09-20T10:56:33.889Z,101555.11
2018-09-20T10:59:02.846Z,101569.67
2018-09-20T11:01:31.466Z,101558.91
2018-09-20T11:04:00.026Z,101558.02
2018-09-20T11:06:28.714Z,101557.84
2018-09-20T11:08:57.419Z,101550.83
2018-09-20T11:11:26.081Z,101556.78
2018-09-20T11:13:54.624Z,101561.34
2018-09-20T11:16:23.234Z,101558.41
2018-09-20T11:18:51.861Z,101553.95
2018-09-20T11:21:20.438Z,101561.88
2018-09-20T11:23:49.142Z,101551.08
2018-09-20T11:26:17.739Z,101549.96
2018-09-20T11:28:46.408Z,101546.06
2018-09-20T11:31:15.030Z,101546.20
2018-09-20T11:33:44.291Z,101552.85
2018-09-20T11:36:12.842Z,101547.84
2018-09-20T11:38:41.413Z,101544.73
2018-09-20T11:41:10.012Z,101549.53
2018-09-20T11:43:38.576Z,101539.69
2018-09-20T11:46:07.136Z,101536.95
2018-09-20T11:48:35.732Z,101541.94
2018-09-20T11:51:04.358Z,101536.77
2018-09-20T11:53:33.625Z,101548.51
2018-09-20T11:56:02.198Z,101535.41
2018-09-20T11:58:30.892Z,101533.75
2018-09-20T12:01:00.428Z,101539.73
2018-09-20T12:03:29.031Z,101537.19
2018-09-20T12:05:57.601Z,101514.72
2018-09-20T12:08:26.260Z,101529.00
2018-09-20T12:10:55.026Z,101522.14
2018-09-20T12:13:23.647Z,101512.19
2018-09-20T12:15:52.324Z,101517.95
2018-09-20T12:18:20.959Z,101505.95
2018-09-20T12:20:49.630Z,101496.45
2018-09-20T12:23:18.281Z,101496.22
2018-09-20T12:25:47.053Z,101488.76
2018-09-20T12:28:15.576Z,101483.34
2018-09-20T12:30:44.355Z,101474.30
2018-09-20T12:33:13.031Z,101477.76
2018-09-20T12:35:41.691Z,101481.80
2018-09-20T12:38:13.855Z,101473.38
2018-09-20T12:40:42.470Z,101472.98
2018-09-20T12:43:11.082Z,101463.66
2018-09-20T12:45:39.667Z,101461.86
2018-09-20T12:48:08.329Z,101466.19
2018-09-20T12:50:36.931Z,101470.11
2018-09-20T12:53:05.701Z,101459.78
2018-09-20T12:55:34.381Z,101458.38
2018-09-20T12:58:03.112Z,101457.11
2018-09-20T13:00:31.783Z,101457.20
2018-09-20T13:03:00.442Z,101456.13
2018-09-20T13:05:29.139Z,101445.96
2018-09-20T13:07:58.025Z,101437.05
2018-09-20T13:10:26.893Z,101446.50
2018-09-20T13:12:55.465Z,101437.33
2018-09-20T13:15:24.043Z,101443.98
2018-09-20T13:17:52.624Z,101432.22
2018-09-20T13:20:22.033Z,101429.73
2018-09-20T13:22:50.764Z,101415.73
2018-09-20T13:25:19.433Z,101421.70
2018-09-20T13:27:48.129Z,101414.77
2018-09-20T13:30:16.787Z,101415.48
2018-09-20T13:32:53.380Z,101415.25
2018-09-20T13:35:22.065Z,101409.38
2018-09-20T13:37:50.721Z,101397.55
2018-09-20T13:40:19.936Z,101396.91
2018-09-20T13:42:48.641Z,101404.59
2018-09-20T13:45:17.405Z,101406.73
2018-09-20T13:47:46.105Z,101399.36
2018-09-20T13:50:14.825Z,101399.18
2018-09-20T13:52:43.791Z,101394.92
2018-09-20T13:55:12.387Z,101385.41
2018-09-20T13:57:41.106Z,101383.45
2018-09-20T14:00:10.101Z,101378.25
2018-09-20T14:02:38.939Z,101373.64
2018-09-20T14:05:07.889Z,101368.30
2018-09-20T14:07:38.064Z,101361.73
2018-09-20T14:10:06.693Z,101344.52
2018-09-20T14:12:35.420Z,101346.15
2018-09-20T14:15:04.164Z,101346.45
2018-09-20T14:17:32.806Z,101345.61
2018-09-20T14:20:01.497Z,101346.73
2018-09-20T14:22:30.324Z,101346.39
2018-09-20T14:24:58.968Z,101342.30
2018-09-20T14:27:28.390Z,101331.92
2018-09-20T14:29:57.036Z,101326.80
2018-09-20T14:32:25.840Z,101332.45
2018-09-20T14:34:54.622Z,101321.53
2018-09-20T14:37:23.790Z,101324.97
2018-09-20T14:39:52.400Z,101320.72
2018-09-20T14:42:21.022Z,101313.83
2018-09-20T14:44:49.757Z,101308.26
2018-09-20T14:47:18.384Z,101300.08
2018-09-20T14:49:46.954Z,101295.23
2018-09-20T14:52:15.710Z,101302.27
2018-09-20T14:54:44.308Z,101291.79
2018-09-20T14:57:13.016Z,101300.16
2018-09-20T14:59:41.617Z,101287.85
2018-09-20T15:02:10.348Z,101280.47
2018-09-20T15:04:38.973Z,101278.16
2018-09-20T15:07:07.662Z,101276.64
2018-09-20T15:09:36.345Z,101269.17
2018-09-20T15:12:05.130Z,101268.95
2018-09-20T15:14:33.809Z,101266.88
2018-09-20T15:17:02.400Z,101256.02
2018-09-20T15:19:31.144Z,101262.78
2018-09-20T15:21:59.900Z,101263.05
2018-09-20T15:24:28.549Z,101268.53
2018-09-20T15:26:57.163Z,101262.61
2018-09-20T15:29:25.752Z,101256.11
2018-09-20T15:31:54.306Z,101256.47
2018-09-20T15:34:23.106Z,101247.68
2018-09-20T15:36:51.890Z,101237.61
2018-09-20T15:39:20.722Z,101239.73
2018-09-20T15:41:49.409Z,101233.09
2018-09-20T15:44:18.097Z,101239.14
2018-09-20T15:46:46.741Z,101226.04
2018-09-20T15:49:15.933Z,101224.23
2018-09-20T15:51:44.526Z,101224.70
2018-09-20T15:54:13.098Z,101219.23
2018-09-20T15:56:41.798Z,101216.73
2018-09-20T15:59:10.334Z,101211.45
2018-09-20T16:01:42.622Z,101211.05
2018-09-20T16:04:42.664Z,101211.22
2018-09-20T16:07:11.346Z,101213.08
2018-09-20T16:09:39.930Z,101212.95
2018-09-20T16:12:08.526Z,101211.38
2018-09-20T16:14:37.249Z,101191.95
2018-09-20T16:17:05.911Z,101192.10
2018-09-20T16:19:34.573Z,101197.84
2018-09-20T16:22:03.211Z,101195.95
2018-09-20T16:24:31.790Z,101185.74
2018-09-20T16:27:00.337Z,101181.81
2018-09-20T16:29:43.175Z,101179.11
2018-09-20T16:34:26.008Z,101171.42
2018-09-20T16:37:09.133Z,101158.63
2018-09-20T16:39:39.974Z,101162.17
2018-09-20T16:42:10.616Z,101165.47
2018-09-20T16:44:39.177Z,101155.05
2018-09-20T16:47:07.707Z,101151.79
2018-09-20T16:49:36.393Z,101150.41
2018-09-20T16:52:05.237Z,101139.63
2018-09-20T16:54:33.906Z,101145.11
2018-09-20T16:57:02.658Z,101139.84
2018-09-20T16:59:31.211Z,101141.02
2018-09-20T17:01:59.772Z,101145.00
2018-09-20T17:04:28.529Z,101137.30
2018-09-20T17:06:57.097Z,101135.45
2018-09-20T17:09:25.669Z,101131.03
2018-09-20T17:11:54.205Z,101131.06
2018-09-20T17:14:22.770Z,101127.60
2018-09-20T17:16:51.370Z,101131.17
2018-09-20T17:19:20.072Z,101122.56
2018-09-20T17:21:48.756Z,101120.35
2018-09-20T17:24:17.328Z,101117.61
2018-09-20T17:26:46.002Z,101116.30
2018-09-20T17:29:14.561Z,101112.48
2018-09-20T17:31:44.371Z,101117.03
2018-09-20T17:34:13.152Z,101116.16
2018-09-20T17:36:42.705Z,101108.08
2018-09-20T17:39:13.315Z,101108.45
2018-09-20T17:41:44.041Z,101106.98
2018-09-20T17:44:12.601Z,101109.55
2018-09-20T17:46:41.360Z,101108.54
2018-09-20T17:49:09.980Z,101100.40
2018-09-20T17:51:39.109Z,101104.74
2018-09-20T17:54:08.546Z,101107.20
2018-09-20T17:56:38.053Z,101099.45
2018-09-20T17:59:06.677Z,101096.94
2018-09-20T18:01:35.597Z,101094.91
2018-09-20T18:04:04.181Z,101099.54
2018-09-20T18:06:32.886Z,101097.01
2018-09-20T18:09:01.478Z,101098.48
2018-09-20T18:11:30.051Z,101097.66
2018-09-20T18:14:19.811Z,101097.32
2018-09-20T18:16:48.745Z,101095.69
2018-09-20T18:19:17.421Z,101098.05
2018-09-20T18:21:46.133Z,101094.16
2018-09-20T18:24:14.974Z,101089.80
2018-09-20T18:26:44.370Z,101089.86
2018-09-20T18:29:13.002Z,101091.22
2018-09-20T18:31:41.561Z,101080.99
2018-09-20T18:34:10.180Z,101089.04
2018-09-20T18:36:39.397Z,101079.80
2018-09-20T18:39:10.547Z,101083.38
2018-09-20T18:41:52.702Z,101083.88
2018-09-20T18:44:21.282Z,101082.17
2018-09-20T18:46:51.799Z,101084.87
2018-09-20T18:49:20.384Z,101086.69
2018-09-20T18:51:49.189Z,101081.37
2018-09-20T18:54:17.748Z,101081.42
2018-09-20T18:56:46.355Z,101076.09
2018-09-20T18:59:14.949Z,101077.88
2018-09-20T19:01:43.623Z,101078.38
2018-09-20T19:04:12.257Z,101072.66
2018-09-20T19:06:40.884Z,101067.34
2018-09-20T19:09:10.192Z,101071.78
2018-09-20T19:11:39.184Z,101072.66
2018-09-20T19:14:08.052Z,101070.87
2018-09-20T19:16:37.109Z,101073.05
2018-09-20T19:19:05.948Z,101074.40
2018-09-20T19:21:34.548Z,101072.65
2018-09-20T19:24:03.457Z,101072.62
2018-09-20T19:26:32.361Z,101065.05
2018-09-20T19:29:01.307Z,101060.45
2018-09-20T19:31:30.552Z,101052.64
2018-09-20T19:33:59.193Z,101044.06
2018-09-20T19:36:27.835Z,101049.19
2018-09-20T19:38:56.482Z,101045.37
2018-09-20T19:41:25.366Z,101039.80
2018-09-20T19:43:54.086Z,101044.91
2018-09-20T19:46:23.154Z,101032.77
2018-09-20T19:49:00.984Z,101036.64
2018-09-20T19:51:29.639Z,101033.52
2018-09-20T19:54:02.438Z,101025.36
2018-09-20T19:57:03.814Z,101026.99
2018-09-20T19:59:32.459Z,101026.45
2018-09-20T20:05:22.472Z,101022.89
2018-09-20T20:07:51.081Z,101015.50
2018-09-20T20:10:20.505Z,101021.83
2018-09-20T20:12:49.293Z,101023.80
2018-09-20T20:15:17.876Z,101019.52
2018-09-20T20:17:46.472Z,101021.41
2018-09-20T20:20:15.030Z,101019.77
2018-09-20T20:22:43.745Z,101018.52
2018-09-20T20:25:12.369Z,101013.75
2018-09-20T20:27:40.965Z,101008.08
2018-09-20T20:30:09.549Z,101008.95
2018-09-20T20:32:38.192Z,101006.75
2018-09-20T20:35:06.896Z,101008.59
2018-09-20T20:37:35.516Z,101002.89
2018-09-20T20:40:04.134Z,100995.74
2018-09-20T20:42:33.376Z,100983.23
2018-09-20T20:45:02.056Z,100979.63
2018-09-20T20:47:30.630Z,100972.45
2018-09-20T20:49:59.333Z,100966.23
2018-09-20T20:52:27.918Z,100968.77
2018-09-20T20:54:57.797Z,100965.19
2018-09-20T20:57:26.376Z,100957.11
2018-09-20T20:59:55.140Z,100954.40
2018-09-20T21:02:23.747Z,100948.99
2018-09-20T21:05:06.789Z,100942.77
2018-09-20T21:07:35.438Z,100937.89
2018-09-20T21:10:04.132Z,100924.95
2018-09-20T21:12:32.752Z,100917.36
2018-09-20T21:15:01.357Z,100917.84
2018-09-20T21:17:29.996Z,100914.64
2018-09-20T21:19:59.629Z,100914.60
2018-09-20T21:22:28.253Z,100911.55
2018-09-20T21:24:56.900Z,100911.13
2018-09-20T21:27:25.473Z,100907.10
2018-09-20T21:29:54.029Z,100899.50
2018-09-20T21:32:22.585Z,100902.58
2018-09-20T21:34:51.183Z,100896.84
2018-09-20T21:37:19.831Z,100885.25
2018-09-20T21:39:48.464Z,100880.41
2018-09-20T21:42:17.035Z,100876.90
2018-09-20T21:44:45.594Z,100877.76
2018-09-20T21:47:14.421Z,100871.60
2018-09-20T21:49:43.613Z,100860.94
2018-09-20T21:52:12.225Z,100852.55
2018-09-20T21:54:40.803Z,100857.07
2018-09-20T21:57:09.437Z,100855.34
2018-09-20T21:59:37.976Z,100851.45
2018-09-20T22:02:06.797Z,100854.30
2018-09-20T22:04:35.434Z,100850.42
